Time;durP1;ratioP1;P1;durP2;ratioP2;P2;SDS_P1;SDS_P2;PMS_P1;PMS_P2;Temp;Humidity;BMP_temperature;BMP_pressure;BME280_temperature;BME280_humidity;BME280_pressure;Samples;Min_cycle;Max_cycle;Signal;HPM_P1;HPM_P2
2023/02/06 00:00:46;;;;;;;46.35;5.88;;;5.60;99.90;;;;;;5129795;27;20191;-80
2023/02/06 00:03:12;;;;;;;38.47;5.45;;;5.70;99.90;;;;;;5133431;27;20169;-80
2023/02/06 00:05:37;;;;;;;46.85;4.97;;;5.60;99.90;;;;;;5133914;27;20176;-79
2023/02/06 00:08:03;;;;;;;46.40;5.55;;;5.60;99.90;;;;;;5132487;27;20212;-80
2023/02/06 00:10:29;;;;;;;41.83;5.15;;;5.60;99.90;;;;;;5114618;27;20697;-80
2023/02/06 00:12:55;;;;;;;37.03;4.78;;;5.60;99.90;;;;;;5131472;27;20189;-85
2023/02/06 00:15:21;;;;;;;37.40;5.22;;;5.60;99.90;;;;;;5132765;27;20188;-79
2023/02/06 00:17:47;;;;;;;52.55;4.90;;;5.70;99.90;;;;;;5120180;27;20189;-80
2023/02/06 00:20:13;;;;;;;41.47;4.80;;;5.70;99.90;;;;;;5130863;27;20189;-80
2023/02/06 00:22:39;;;;;;;48.30;5.22;;;5.70;99.90;;;;;;5134369;27;20204;-80
2023/02/06 00:25:05;;;;;;;45.60;5.70;;;5.70;99.90;;;;;;5133557;27;20224;-80
2023/02/06 00:27:31;;;;;;;44.03;5.20;;;5.70;99.90;;;;;;5134339;27;20299;-81
2023/02/06 00:29:57;;;;;;;42.80;4.85;;;5.60;99.90;;;;;;5131432;27;20180;-84
2023/02/06 00:32:23;;;;;;;39.47;5.22;;;5.60;99.90;;;;;;5114019;27;20180;-79
2023/02/06 00:34:49;;;;;;;30.55;4.72;;;5.60;99.90;;;;;;5114845;27;20573;-79
2023/02/06 00:37:16;;;;;;;34.35;4.45;;;5.60;99.90;;;;;;5111780;28;20239;-81
2023/02/06 00:39:42;;;;;;;41.83;5.53;;;5.70;99.90;;;;;;5110834;28;20181;-79
2023/02/06 00:42:08;;;;;;;33.30;4.20;;;5.60;99.90;;;;;;5113503;27;20181;-80
2023/02/06 00:44:34;;;;;;;42.15;5.22;;;5.70;99.90;;;;;;5128529;27;20184;-80
2023/02/06 00:47:00;;;;;;;32.83;4.88;;;5.70;99.90;;;;;;5115669;27;20204;-80
2023/02/06 00:49:26;;;;;;;32.22;4.55;;;5.70;99.90;;;;;;5131678;27;20723;-79
2023/02/06 00:51:52;;;;;;;36.90;4.68;;;5.70;99.90;;;;;;5114321;27;20263;-80
2023/02/06 00:54:19;;;;;;;39.05;5.07;;;5.70;99.90;;;;;;5132977;27;20229;-80
2023/02/06 00:56:46;;;;;;;41.72;4.57;;;5.70;99.90;;;;;;5130910;27;20204;-79
2023/02/06 00:59:13;;;;;;;33.53;4.47;;;5.80;99.90;;;;;;5123161;27;20635;-79
2023/02/06 01:01:39;;;;;;;33.03;4.80;;;5.70;99.90;;;;;;5116158;27;20185;-80
2023/02/06 01:04:05;;;;;;;35.90;4.47;;;5.70;99.90;;;;;;5106290;27;20184;-80
2023/02/06 01:06:30;;;;;;;44.33;4.65;;;5.70;99.90;;;;;;5115644;27;20176;-81
2023/02/06 01:08:56;;;;;;;42.28;4.13;;;5.80;99.90;;;;;;5124097;27;20205;-80
2023/02/06 01:11:24;;;;;;;29.95;4.30;;;5.80;99.90;;;;;;5111837;28;20173;-80
2023/02/06 01:13:50;;;;;;;34.92;4.35;;;5.80;99.90;;;;;;5112024;28;20251;-80
2023/02/06 01:16:19;;;;;;;29.05;4.53;;;5.80;99.90;;;;;;5112563;28;20177;-79
2023/02/06 01:18:45;;;;;;;37.08;4.70;;;5.80;99.90;;;;;;5114403;28;20625;-80
2023/02/06 01:21:17;;;;;;;31.13;4.07;;;5.80;99.90;;;;;;5111975;28;20181;-79
2023/02/06 01:23:43;;;;;;;36.75;4.18;;;5.90;99.90;;;;;;5115097;28;20451;-79
2023/02/06 01:26:12;;;;;;;39.13;4.20;;;5.80;99.90;;;;;;5094020;28;20296;-80
2023/02/06 01:28:40;;;;;;;37.25;4.22;;;5.80;99.90;;;;;;5117919;28;20204;-80
2023/02/06 01:31:13;;;;;;;28.33;3.88;;;5.80;99.90;;;;;;5132097;28;20225;-79
2023/02/06 01:33:40;;;;;;;34.45;4.88;;;5.80;99.90;;;;;;5132917;27;20229;-80
2023/02/06 01:36:06;;;;;;;39.20;5.18;;;5.80;99.90;;;;;;5131531;28;20592;-79
2023/02/06 01:38:32;;;;;;;33.75;4.50;;;5.80;99.90;;;;;;5129531;28;20184;-79
2023/02/06 01:40:59;;;;;;;36.97;4.60;;;5.80;99.90;;;;;;5132643;28;20172;-79
2023/02/06 01:43:28;;;;;;;41.10;4.22;;;5.70;99.90;;;;;;5130616;28;20573;-79
2023/02/06 01:45:54;;;;;;;37.47;4.25;;;5.80;99.90;;;;;;5121850;28;20242;-79
2023/02/06 01:48:31;;;;;;;40.60;4.80;;;5.80;99.90;;;;;;5096919;28;20216;-79
2023/02/06 01:50:57;;;;;;;35.30;4.15;;;5.80;99.90;;;;;;5120641;28;20177;-80
2023/02/06 01:53:24;;;;;;;33.47;4.28;;;5.80;99.90;;;;;;5116303;28;20204;-80
2023/02/06 01:55:53;;;;;;;41.45;4.30;;;5.80;99.90;;;;;;5099764;28;20265;-80
2023/02/06 01:58:26;;;;;;;44.65;4.50;;;5.80;99.90;;;;;;5114669;28;20185;-80
2023/02/06 02:00:53;;;;;;;35.95;4.55;;;5.80;99.90;;;;;;5098703;28;20180;-79
2023/02/06 02:03:19;;;;;;;34.83;4.50;;;5.80;99.90;;;;;;5124215;28;20185;-80
2023/02/06 02:05:47;;;;;;;30.90;4.05;;;5.80;99.90;;;;;;5112676;28;20276;-79
2023/02/06 02:08:23;;;;;;;36.60;4.50;;;5.80;99.90;;;;;;5113361;28;20308;-79
2023/02/06 02:10:49;;;;;;;38.28;4.72;;;5.80;99.90;;;;;;5111605;28;20172;-79
2023/02/06 02:13:16;;;;;;;47.30;4.47;;;5.80;99.90;;;;;;5123434;28;20207;-78
2023/02/06 02:15:57;;;;;;;32.80;4.65;;;5.80;99.90;;;;;;5114890;28;20181;-79
2023/02/06 02:18:41;;;;;;;38.03;4.53;;;5.80;99.90;;;;;;5115796;28;20180;-79
2023/02/06 02:21:43;;;;;;;35.75;4.55;;;5.70;99.90;;;;;;5132067;27;20689;-79
2023/02/06 02:24:24;;;;;;;26.60;3.85;;;5.70;99.90;;;;;;5121749;28;20263;-79
2023/02/06 02:27:11;;;;;;;38.63;4.68;;;5.70;99.90;;;;;;5112041;28;20184;-80
2023/02/06 02:29:47;;;;;;;33.88;4.90;;;5.70;99.90;;;;;;5126254;28;20216;-80
2023/02/06 02:32:25;;;;;;;32.55;4.53;;;5.60;99.90;;;;;;5126032;28;20184;-79
2023/02/06 02:35:09;;;;;;;38.30;4.22;;;5.60;99.90;;;;;;5127127;28;20635;-81
2023/02/06 02:38:11;;;;;;;31.80;3.97;;;5.60;99.90;;;;;;5128600;27;20215;-78
2023/02/06 02:41:01;;;;;;;37.10;4.18;;;5.60;99.90;;;;;;5095571;28;20297;-79
2023/02/06 02:43:39;;;;;;;29.58;3.83;;;5.60;99.90;;;;;;5117066;27;20513;-79
2023/02/06 02:46:18;;;;;;;32.00;3.80;;;5.60;99.90;;;;;;5108276;27;20249;-80
2023/02/06 02:48:48;;;;;;;29.27;3.97;;;5.50;99.90;;;;;;5108863;27;20250;-81
2023/02/06 02:51:15;;;;;;;32.28;4.30;;;5.50;99.90;;;;;;5118400;27;20632;-80
2023/02/06 02:53:41;;;;;;;41.55;4.03;;;5.50;99.90;;;;;;5117218;27;20189;-80
2023/02/06 02:56:22;;;;;;;32.92;3.70;;;5.50;99.90;;;;;;5135285;27;20272;-80
2023/02/06 02:59:00;;;;;;;27.35;4.05;;;5.50;99.90;;;;;;5115487;27;20180;-80
2023/02/06 03:01:41;;;;;;;30.33;3.88;;;5.50;99.90;;;;;;5121687;27;20185;-80
2023/02/06 03:04:17;;;;;;;32.50;4.07;;;5.40;99.90;;;;;;5122588;27;20180;-80
2023/02/06 03:06:58;;;;;;;32.20;3.92;;;5.40;99.90;;;;;;5117919;27;20168;-79
2023/02/06 03:09:53;;;;;;;36.60;4.00;;;5.40;99.90;;;;;;5130402;27;20184;-80
2023/02/06 03:12:37;;;;;;;38.10;3.80;;;5.50;99.90;;;;;;5131579;27;20203;-80
2023/02/06 03:15:07;;;;;;;30.70;4.18;;;5.50;99.90;;;;;;5133375;27;20541;-80
2023/02/06 03:17:47;;;;;;;34.47;4.30;;;5.50;99.90;;;;;;5121799;27;20177;-79
2023/02/06 03:20:15;;;;;;;37.80;4.10;;;5.50;99.90;;;;;;5130807;27;20184;-81
2023/02/06 03:22:44;;;;;;;29.48;4.00;;;5.50;99.90;;;;;;5132670;27;20191;-79
2023/02/06 03:25:12;;;;;;;39.80;4.35;;;5.60;99.90;;;;;;5135013;27;20228;-79
2023/02/06 03:27:41;;;;;;;33.55;4.32;;;5.50;99.90;;;;;;5135315;27;20284;-79
2023/02/06 03:30:11;;;;;;;40.78;4.00;;;5.60;99.90;;;;;;5123209;27;20212;-80
2023/02/06 03:32:41;;;;;;;41.30;4.20;;;5.50;99.90;;;;;;5121011;27;20203;-79
2023/02/06 03:35:19;;;;;;;39.85;4.28;;;5.60;99.90;;;;;;5133039;27;20271;-79
2023/02/06 03:37:46;;;;;;;30.08;4.10;;;5.60;99.90;;;;;;5134236;27;20267;-80
2023/02/06 03:40:13;;;;;;;25.33;3.50;;;5.60;99.90;;;;;;5115077;27;20256;-80
2023/02/06 03:42:44;;;;;;;23.85;3.85;;;5.60;99.90;;;;;;5113435;28;20180;-79
2023/02/06 03:45:23;;;;;;;40.03;4.15;;;5.60;99.90;;;;;;5131850;27;20192;-80
2023/02/06 03:47:51;;;;;;;27.30;3.75;;;5.50;99.90;;;;;;5134062;27;20195;-84
2023/02/06 03:50:17;;;;;;;38.90;4.55;;;5.50;99.90;;;;;;5117880;27;20263;-80
2023/02/06 03:52:47;;;;;;;31.85;4.28;;;5.50;99.90;;;;;;5116697;27;20263;-79
2023/02/06 03:55:17;;;;;;;32.00;4.50;;;5.50;99.90;;;;;;5132422;27;20259;-79
2023/02/06 03:57:46;;;;;;;29.23;4.32;;;5.60;99.90;;;;;;5135236;27;20211;-79
2023/02/06 04:00:13;;;;;;;29.88;4.10;;;5.50;99.90;;;;;;5133080;27;20180;-79
2023/02/06 04:02:39;;;;;;;36.88;4.15;;;5.50;99.90;;;;;;5122471;27;20226;-81
2023/02/06 04:05:06;;;;;;;43.90;3.67;;;5.50;99.90;;;;;;5123299;27;20188;-80
2023/02/06 04:07:33;;;;;;;35.88;4.65;;;5.50;99.90;;;;;;5134860;27;20200;-79
2023/02/06 04:09:59;;;;;;;28.77;3.65;;;5.50;99.90;;;;;;5099047;28;20193;-79
2023/02/06 04:12:25;;;;;;;32.45;4.35;;;5.50;99.90;;;;;;5133544;27;20180;-79
2023/02/06 04:14:51;;;;;;;39.38;4.32;;;5.50;99.90;;;;;;5132096;27;20191;-79
2023/02/06 04:17:17;;;;;;;38.80;4.38;;;5.50;99.90;;;;;;5132154;27;20199;-79
2023/02/06 04:19:43;;;;;;;48.65;4.72;;;5.50;99.90;;;;;;5123734;27;20314;-80
2023/02/06 04:22:13;;;;;;;26.45;3.75;;;5.50;99.90;;;;;;5127218;27;20644;-79
2023/02/06 04:24:40;;;;;;;31.08;4.10;;;5.50;99.90;;;;;;5118087;27;20235;-79
2023/02/06 04:27:11;;;;;;;37.80;4.40;;;5.50;99.90;;;;;;5114069;27;20197;-80
2023/02/06 04:29:37;;;;;;;35.85;4.20;;;5.50;99.90;;;;;;5118991;27;20283;-80
2023/02/06 04:32:04;;;;;;;36.03;4.00;;;5.50;99.90;;;;;;5099816;28;20644;-80
2023/02/06 04:34:34;;;;;;;38.33;4.50;;;5.50;99.90;;;;;;5125931;27;20206;-79
2023/02/06 04:37:01;;;;;;;41.22;4.95;;;5.50;99.90;;;;;;5133469;27;20185;-79
2023/02/06 04:39:27;;;;;;;36.08;4.15;;;5.50;99.90;;;;;;5132045;27;20267;-80
2023/02/06 04:41:53;;;;;;;35.40;4.78;;;5.50;99.90;;;;;;5132825;27;20269;-79
2023/02/06 04:44:20;;;;;;;44.50;4.75;;;5.50;99.90;;;;;;5128299;27;20184;-80
2023/02/06 04:46:46;;;;;;;28.55;4.00;;;5.50;99.90;;;;;;5121662;27;20181;-80
2023/02/06 04:49:13;;;;;;;34.53;4.43;;;5.50;99.90;;;;;;5128408;27;20200;-80
2023/02/06 04:51:39;;;;;;;28.63;3.60;;;5.60;99.90;;;;;;5133965;27;20689;-82
2023/02/06 04:54:05;;;;;;;45.05;4.85;;;5.60;99.90;;;;;;5126879;27;20181;-80
2023/02/06 04:56:31;;;;;;;36.55;4.55;;;5.60;99.90;;;;;;5130412;27;20655;-79
2023/02/06 04:58:56;;;;;;;37.65;4.63;;;5.60;99.90;;;;;;5123823;27;20196;-80
2023/02/06 05:01:22;;;;;;;32.78;3.75;;;5.60;99.90;;;;;;5132280;27;20183;-79
2023/02/06 05:03:48;;;;;;;32.75;3.78;;;5.60;99.90;;;;;;5130107;27;20242;-80
2023/02/06 05:06:15;;;;;;;40.38;4.60;;;5.60;99.90;;;;;;5128665;27;20182;-80
2023/02/06 05:08:40;;;;;;;39.78;4.10;;;5.60;99.90;;;;;;5109236;28;20612;-80
2023/02/06 05:11:06;;;;;;;46.08;4.47;;;5.60;99.90;;;;;;5132484;27;20231;-80
2023/02/06 05:13:33;;;;;;;40.58;4.63;;;5.60;99.90;;;;;;5129162;27;20334;-79
2023/02/06 05:16:10;;;;;;;50.70;4.50;;;5.60;99.90;;;;;;5126562;27;20259;-80
2023/02/06 05:18:36;;;;;;;44.13;4.13;;;5.60;99.90;;;;;;5120463;27;20168;-80
2023/02/06 05:21:03;;;;;;;30.80;4.85;;;5.60;99.90;;;;;;5133505;27;20648;-80
2023/02/06 05:23:31;;;;;;;31.73;4.25;;;5.60;99.90;;;;;;5118815;27;20264;-83
2023/02/06 05:25:58;;;;;;;44.80;4.90;;;5.60;99.90;;;;;;5130813;28;20247;-79
2023/02/06 05:28:24;;;;;;;41.97;4.97;;;5.60;99.90;;;;;;5129890;27;20203;-80
2023/02/06 05:30:49;;;;;;;34.53;4.53;;;5.60;99.90;;;;;;5123479;28;20174;-80
2023/02/06 05:33:15;;;;;;;48.90;4.95;;;5.60;99.90;;;;;;5112853;28;20280;-79
2023/02/06 05:35:41;;;;;;;44.45;4.28;;;5.70;99.90;;;;;;5094701;28;20223;-79
2023/02/06 05:38:07;;;;;;;46.55;4.70;;;5.70;99.90;;;;;;5115686;28;20217;-80
2023/02/06 05:40:33;;;;;;;36.95;4.00;;;5.70;99.90;;;;;;5120253;28;20233;-80
2023/02/06 05:42:59;;;;;;;44.40;4.20;;;5.70;99.90;;;;;;5115781;28;20192;-80
2023/02/06 05:45:25;;;;;;;38.00;4.50;;;5.70;99.90;;;;;;5114203;28;20649;-80
2023/02/06 05:47:52;;;;;;;32.83;4.32;;;5.70;99.90;;;;;;5112975;28;20205;-79
2023/02/06 05:50:18;;;;;;;35.45;4.43;;;5.70;99.90;;;;;;5122535;28;20625;-80
2023/02/06 05:52:44;;;;;;;45.70;5.28;;;5.70;99.90;;;;;;5123513;28;20176;-80
2023/02/06 05:55:09;;;;;;;33.40;4.32;;;5.80;99.90;;;;;;5113689;28;20208;-80
2023/02/06 05:57:35;;;;;;;39.75;5.00;;;5.70;99.90;;;;;;5126931;28;20191;-80
2023/02/06 06:00:02;;;;;;;56.22;5.13;;;5.70;99.90;;;;;;5129712;28;20237;-81
2023/02/06 06:02:37;;;;;;;46.47;5.07;;;5.70;99.90;;;;;;5130149;27;20598;-79
2023/02/06 06:05:03;;;;;;;46.33;5.50;;;5.70;99.90;;;;;;5128639;28;20180;-79
2023/02/06 06:07:29;;;;;;;35.63;4.93;;;5.80;99.90;;;;;;5120712;28;20236;-79
2023/02/06 06:09:54;;;;;;;39.88;4.70;;;5.80;99.90;;;;;;5138678;27;20222;-81
2023/02/06 06:12:20;;;;;;;56.17;5.88;;;5.70;99.90;;;;;;5134401;27;20629;-81
2023/02/06 06:14:46;;;;;;;42.72;5.43;;;5.80;99.90;;;;;;5121662;27;20640;-79
2023/02/06 06:17:12;;;;;;;39.40;3.97;;;5.70;99.90;;;;;;5119784;27;20695;-79
2023/02/06 06:19:37;;;;;;;31.08;4.28;;;5.80;99.90;;;;;;5120759;27;20181;-79
2023/02/06 06:22:03;;;;;;;36.47;4.32;;;5.70;99.90;;;;;;5116244;28;20571;-79
2023/02/06 06:24:29;;;;;;;43.05;4.80;;;5.80;99.90;;;;;;5126683;27;20176;-80
2023/02/06 06:26:55;;;;;;;44.00;4.70;;;5.80;99.90;;;;;;5135328;27;20641;-79
2023/02/06 06:29:20;;;;;;;40.35;4.95;;;5.70;99.90;;;;;;5096637;27;20185;-79
2023/02/06 06:31:46;;;;;;;28.98;4.00;;;5.70;99.90;;;;;;5135858;27;20587;-82
2023/02/06 06:34:12;;;;;;;33.97;4.45;;;5.70;99.90;;;;;;5118407;27;20178;-80
2023/02/06 06:36:38;;;;;;;44.20;4.88;;;5.70;99.90;;;;;;5101109;27;20233;-82
2023/02/06 06:39:04;;;;;;;31.38;4.95;;;5.70;99.90;;;;;;5134993;27;20184;-80
2023/02/06 06:41:29;;;;;;;34.17;4.70;;;5.70;99.90;;;;;;5116804;27;20271;-81
2023/02/06 06:43:56;;;;;;;34.10;4.13;;;5.70;99.90;;;;;;5120091;27;20249;-80
2023/02/06 06:46:22;;;;;;;31.95;4.50;;;5.70;99.90;;;;;;5134877;27;20212;-80
2023/02/06 06:48:48;;;;;;;29.98;4.85;;;5.70;99.90;;;;;;5122669;27;20196;-80
2023/02/06 06:51:14;;;;;;;38.88;4.80;;;5.70;99.90;;;;;;5136482;27;20176;-80
2023/02/06 06:53:40;;;;;;;39.28;5.82;;;5.70;99.90;;;;;;5128937;27;20590;-80
2023/02/06 06:56:08;;;;;;;29.58;4.97;;;5.70;99.90;;;;;;5134291;27;20180;-80
2023/02/06 06:58:34;;;;;;;37.67;5.22;;;5.70;99.90;;;;;;5134433;27;20180;-80
2023/02/06 07:01:00;;;;;;;48.38;5.35;;;5.70;99.90;;;;;;5125374;27;20191;-82
2023/02/06 07:03:26;;;;;;;34.10;5.35;;;5.70;99.90;;;;;;5118034;27;20298;-79
2023/02/06 07:05:52;;;;;;;29.63;4.80;;;5.70;99.90;;;;;;5115219;28;20212;-78
2023/02/06 07:08:18;;;;;;;35.28;5.03;;;5.70;99.90;;;;;;5098091;27;21094;-78
2023/02/06 07:10:44;;;;;;;40.53;4.40;;;5.70;99.90;;;;;;5125167;27;20185;-78
2023/02/06 07:13:10;;;;;;;33.78;4.60;;;5.70;99.90;;;;;;5132944;27;20608;-77
2023/02/06 07:15:35;;;;;;;36.10;5.60;;;5.70;99.90;;;;;;5113226;27;20189;-76
2023/02/06 07:18:01;;;;;;;35.05;4.80;;;5.70;99.90;;;;;;5116677;27;20204;-77
2023/02/06 07:20:27;;;;;;;46.53;4.57;;;5.70;99.90;;;;;;5120558;27;20703;-77
2023/02/06 07:22:53;;;;;;;40.25;4.68;;;5.70;99.90;;;;;;5135075;27;20616;-77
2023/02/06 07:25:20;;;;;;;35.00;4.60;;;5.70;99.90;;;;;;5118256;27;20316;-77
2023/02/06 07:27:46;;;;;;;41.63;4.55;;;5.70;99.90;;;;;;5134995;27;20279;-77
2023/02/06 07:30:13;;;;;;;38.28;6.10;;;5.70;99.90;;;;;;5122205;27;20193;-81
2023/02/06 07:32:39;;;;;;;35.83;5.00;;;5.70;99.90;;;;;;5123238;27;20181;-76
2023/02/06 07:35:05;;;;;;;43.25;5.88;;;5.70;99.90;;;;;;5132804;27;20192;-77
2023/02/06 07:37:32;;;;;;;35.78;4.38;;;5.70;99.90;;;;;;5128469;27;20656;-78
2023/02/06 07:39:58;;;;;;;31.50;4.63;;;5.70;99.90;;;;;;5126114;27;20173;-77
2023/02/06 07:42:23;;;;;;;52.97;5.60;;;5.70;99.90;;;;;;5135338;27;20237;-79
2023/02/06 07:44:56;;;;;;;42.72;5.32;;;5.70;99.90;;;;;;5117940;27;20327;-79
2023/02/06 07:47:22;;;;;;;47.10;4.95;;;5.70;99.90;;;;;;5114019;28;20703;-77
2023/02/06 07:49:48;;;;;;;34.55;5.28;;;5.70;99.90;;;;;;5118476;27;20280;-76
2023/02/06 07:52:14;;;;;;;36.03;5.18;;;5.70;99.90;;;;;;5114510;28;20257;-77
2023/02/06 07:54:40;;;;;;;38.63;5.70;;;5.80;99.90;;;;;;5115770;27;20182;-77
2023/02/06 07:57:06;;;;;;;55.67;6.50;;;5.80;99.90;;;;;;5114464;27;20192;-76
2023/02/06 07:59:32;;;;;;;47.08;6.25;;;5.80;99.90;;;;;;5119614;27;20567;-77
2023/02/06 08:01:59;;;;;;;44.72;6.25;;;5.80;99.90;;;;;;5125760;27;20196;-77
2023/02/06 08:04:26;;;;;;;52.97;5.85;;;5.80;99.90;;;;;;5104215;28;20189;-77
2023/02/06 08:06:52;;;;;;;40.17;5.72;;;5.80;99.90;;;;;;5118760;27;20211;-78
2023/02/06 08:09:18;;;;;;;49.22;5.57;;;5.90;99.90;;;;;;5125134;27;20262;-77
2023/02/06 08:11:46;;;;;;;36.28;5.38;;;5.90;99.90;;;;;;5133483;27;20552;-78
2023/02/06 08:14:12;;;;;;;47.80;5.15;;;5.90;99.90;;;;;;5123192;27;20189;-76
2023/02/06 08:16:38;;;;;;;49.42;7.00;;;5.90;99.90;;;;;;5117831;27;20180;-76
2023/02/06 08:19:05;;;;;;;40.35;6.78;;;6.00;99.90;;;;;;5122527;27;20264;-77
2023/02/06 08:21:31;;;;;;;50.88;5.55;;;6.10;99.90;;;;;;5126483;27;20210;-76
2023/02/06 08:23:59;;;;;;;54.28;6.57;;;6.10;99.90;;;;;;5133526;27;20185;-79
2023/02/06 08:26:26;;;;;;;39.75;5.10;;;6.20;99.90;;;;;;5098489;28;20233;-76
2023/02/06 08:28:53;;;;;;;40.53;6.15;;;6.20;99.90;;;;;;5114272;27;20573;-76
2023/02/06 08:31:24;;;;;;;48.50;5.72;;;6.20;99.90;;;;;;5112079;28;20184;-76
2023/02/06 08:33:51;;;;;;;41.05;5.82;;;6.30;99.90;;;;;;5122357;27;20230;-79
2023/02/06 08:36:18;;;;;;;36.53;6.20;;;6.30;99.90;;;;;;5116387;27;20595;-77
2023/02/06 08:38:45;;;;;;;48.60;5.85;;;6.30;99.90;;;;;;5132493;27;20176;-79
2023/02/06 08:41:18;;;;;;;40.25;6.18;;;6.30;99.90;;;;;;5132962;27;20204;-76
2023/02/06 08:43:48;;;;;;;44.97;5.35;;;6.40;99.90;;;;;;5124123;27;20194;-78
2023/02/06 08:46:15;;;;;;;43.03;5.72;;;6.40;99.90;;;;;;5112590;28;20223;-77
2023/02/06 08:48:41;;;;;;;48.75;6.03;;;6.40;99.90;;;;;;5117257;27;20222;-87
2023/02/06 08:51:08;;;;;;;43.88;6.43;;;6.50;99.90;;;;;;5124918;27;20191;-78
2023/02/06 08:53:35;;;;;;;47.95;5.25;;;6.40;99.90;;;;;;5129639;27;20179;-77
2023/02/06 08:56:04;;;;;;;45.40;6.15;;;6.50;99.90;;;;;;5123106;27;20181;-77
2023/02/06 08:58:29;;;;;;;47.03;6.32;;;6.50;99.90;;;;;;5118340;27;20177;-77
2023/02/06 09:00:56;;;;;;;43.33;5.65;;;6.50;99.90;;;;;;5131281;27;20188;-78
2023/02/06 09:03:22;;;;;;;42.33;6.47;;;6.50;99.90;;;;;;5133337;27;20191;-76
2023/02/06 09:05:48;;;;;;;44.85;6.82;;;6.50;99.90;;;;;;5133975;27;20168;-76
2023/02/06 09:08:15;;;;;;;48.47;6.03;;;6.60;99.90;;;;;;5130912;27;20220;-77
2023/02/06 09:10:41;;;;;;;38.70;8.38;;;6.70;99.90;;;;;;5128434;27;20197;-77
2023/02/06 09:13:06;;;;;;;49.50;7.82;;;6.70;99.90;;;;;;5110530;27;20185;-78
2023/02/06 09:15:32;;;;;;;50.17;7.70;;;6.70;99.90;;;;;;5120114;27;20275;-78
2023/02/06 09:17:58;;;;;;;46.50;5.80;;;6.80;99.90;;;;;;5129896;27;20199;-78
2023/02/06 09:20:26;;;;;;;35.00;6.88;;;7.00;99.90;;;;;;5115722;27;20272;-78
2023/02/06 09:22:52;;;;;;;50.00;6.53;;;7.30;99.90;;;;;;5114278;27;20174;-79
2023/02/06 09:25:18;;;;;;;37.33;5.90;;;7.30;99.90;;;;;;5129862;27;20307;-79
2023/02/06 09:27:45;;;;;;;37.90;6.15;;;7.40;99.90;;;;;;5133200;27;20212;-78
2023/02/06 09:30:13;;;;;;;43.58;5.47;;;7.40;99.90;;;;;;5132121;27;20265;-78
2023/02/06 09:32:39;;;;;;;45.67;6.60;;;7.50;99.90;;;;;;5130835;28;20242;-77
2023/02/06 09:35:05;;;;;;;32.85;5.93;;;7.60;99.90;;;;;;5113823;28;20177;-78
2023/02/06 09:37:31;;;;;;;34.70;6.50;;;7.60;99.90;;;;;;5132301;28;20179;-77
2023/02/06 09:39:57;;;;;;;46.90;6.32;;;7.70;99.90;;;;;;5097195;28;20630;-77
2023/02/06 09:42:41;;;;;;;43.15;6.07;;;7.80;99.90;;;;;;5131224;28;20195;-77
2023/02/06 09:45:13;;;;;;;49.65;6.20;;;7.90;99.90;;;;;;5131540;27;20180;-78
2023/02/06 09:47:44;;;;;;;30.58;5.38;;;8.00;99.90;;;;;;5132490;27;20200;-78
2023/02/06 09:50:15;;;;;;;44.58;5.47;;;8.10;99.90;;;;;;5135310;27;20204;-78
2023/02/06 09:53:08;;;;;;;36.90;5.72;;;8.30;99.90;;;;;;5134137;27;20177;-77
2023/02/06 09:56:01;;;;;;;40.63;5.82;;;8.50;99.90;;;;;;5127225;27;20181;-78
2023/02/06 09:59:00;;;;;;;35.83;5.38;;;8.80;99.90;;;;;;5126857;27;20266;-77
2023/02/06 10:01:31;;;;;;;39.50;5.72;;;9.70;99.90;;;;;;5120143;27;20268;-77
2023/02/06 10:04:08;;;;;;;40.45;5.22;;;10.10;99.90;;;;;;5127074;27;20177;-78
2023/02/06 10:07:16;;;;;;;32.20;5.72;;;10.40;99.90;;;;;;5119120;27;20172;-79
2023/02/06 10:09:49;;;;;;;31.45;4.95;;;11.50;99.90;;;;;;5133184;27;20192;-79
2023/02/06 10:12:23;;;;;;;25.15;4.65;;;12.80;99.90;;;;;;5135343;27;20254;-79
2023/02/06 10:14:58;;;;;;;25.55;4.78;;;13.10;99.90;;;;;;5135517;27;20189;-79
2023/02/06 10:17:35;;;;;;;30.95;5.13;;;12.90;99.90;;;;;;5125674;27;20636;-79
2023/02/06 10:20:10;;;;;;;37.65;5.47;;;12.50;99.90;;;;;;5133454;27;20188;-80
2023/02/06 10:22:57;;;;;;;27.98;4.90;;;12.30;99.90;;;;;;5132460;27;20286;-81
2023/02/06 10:25:32;;;;;;;36.67;5.63;;;12.10;99.90;;;;;;5121169;27;20231;-78
2023/02/06 10:28:01;;;;;;;32.60;4.63;;;12.00;99.90;;;;;;5145636;27;20238;-81
2023/02/06 10:30:48;;;;;;;38.50;6.00;;;11.80;99.90;;;;;;5129431;27;20427;-78
2023/02/06 10:33:31;;;;;;;24.17;4.63;;;12.00;99.90;;;;;;5121809;27;20177;-79
2023/02/06 10:36:08;;;;;;;33.83;5.57;;;12.20;99.90;;;;;;5120299;27;20612;-79
2023/02/06 10:38:57;;;;;;;31.23;4.95;;;12.30;99.90;;;;;;5118715;27;20624;-79
2023/02/06 10:41:57;;;;;;;29.33;4.30;;;12.80;99.90;;;;;;5123782;27;20223;-79
2023/02/06 10:44:26;;;;;;;34.53;4.82;;;13.70;99.90;;;;;;5112986;27;20189;-79
2023/02/06 10:46:54;;;;;;;24.65;3.67;;;15.00;99.90;;;;;;5113363;27;20607;-80
2023/02/06 10:49:30;;;;;;;26.42;4.05;;;16.40;99.90;;;;;;5131681;27;22556;-80
2023/02/06 10:52:17;;;;;;;25.85;4.63;;;18.10;99.90;;;;;;5123061;27;20179;-78
2023/02/06 10:54:50;;;;;;;23.55;4.50;;;19.30;99.90;;;;;;5121313;27;20609;-79
2023/02/06 10:57:20;;;;;;;26.20;3.92;;;19.80;99.90;;;;;;5120568;27;20250;-78
2023/02/06 10:59:51;;;;;;;25.23;4.40;;;19.90;99.90;;;;;;5132022;27;20172;-76
2023/02/06 11:02:54;;;;;;;21.10;3.50;;;19.40;99.90;;;;;;5129253;27;20644;-83
2023/02/06 11:05:24;;;;;;;21.13;3.90;;;18.80;99.90;;;;;;5119241;27;20251;-78
2023/02/06 11:08:15;;;;;;;23.05;3.95;;;18.40;99.90;;;;;;5122558;27;20207;-79
2023/02/06 11:10:40;;;;;;;20.10;4.20;;;18.10;99.90;;;;;;5119800;27;20722;-78
2023/02/06 11:13:14;;;;;;;18.88;3.72;;;18.60;99.90;;;;;;5120839;27;20193;-78
2023/02/06 11:15:52;;;;;;;19.77;3.70;;;19.00;99.90;;;;;;5129263;27;20184;-78
2023/02/06 11:18:23;;;;;;;18.25;3.60;;;18.80;99.90;;;;;;5131283;27;20202;-77
2023/02/06 11:20:50;;;;;;;24.30;3.53;;;18.40;99.00;;;;;;5118478;27;20188;-78
2023/02/06 11:23:18;;;;;;;29.08;4.50;;;18.10;99.00;;;;;;5115240;27;20213;-78
2023/02/06 11:25:45;;;;;;;25.85;3.92;;;18.30;98.10;;;;;;5117680;27;20290;-79
2023/02/06 11:28:19;;;;;;;13.85;3.25;;;18.50;97.50;;;;;;5120648;27;20292;-81
2023/02/06 11:31:03;;;;;;;22.23;3.78;;;18.90;96.90;;;;;;5124472;27;20200;-82
2023/02/06 11:33:38;;;;;;;25.00;4.22;;;20.40;95.70;;;;;;5121475;27;20255;-86
2023/02/06 11:36:06;;;;;;;16.02;3.30;;;21.60;92.40;;;;;;5128434;27;20640;-78
2023/02/06 11:38:32;;;;;;;17.63;3.10;;;22.50;88.50;;;;;;5121398;27;20191;-77
2023/02/06 11:41:04;;;;;;;12.00;2.60;;;22.90;79.80;;;;;;5125043;27;20216;-77
2023/02/06 11:43:47;;;;;;;14.65;2.97;;;23.30;75.10;;;;;;5123674;27;20260;-79
2023/02/06 11:46:19;;;;;;;16.40;3.30;;;22.90;71.60;;;;;;5122513;27;20566;-77
2023/02/06 11:48:46;;;;;;;17.10;3.53;;;22.10;73.60;;;;;;5133303;27;20204;-78
2023/02/06 11:51:13;;;;;;;16.15;2.97;;;22.40;73.10;;;;;;5133104;27;20195;-79
2023/02/06 11:53:56;;;;;;;16.50;3.38;;;23.00;69.20;;;;;;5125749;27;20647;-81
2023/02/06 11:56:23;;;;;;;12.68;2.78;;;23.60;65.10;;;;;;5119228;27;20281;-82
2023/02/06 11:59:22;;;;;;;15.18;3.17;;;24.40;63.40;;;;;;5116075;27;20169;-79
2023/02/06 12:01:48;;;;;;;12.45;3.25;;;24.80;54.50;;;;;;5111193;27;20739;-79
2023/02/06 12:04:30;;;;;;;13.45;2.90;;;25.00;57.90;;;;;;5130137;27;20222;-79
2023/02/06 12:07:17;;;;;;;14.50;2.78;;;25.40;54.30;;;;;;5118312;27;20188;-80
2023/02/06 12:09:43;;;;;;;17.67;2.72;;;25.60;54.70;;;;;;5113973;27;20276;-80
2023/02/06 12:12:17;;;;;;;15.95;3.13;;;25.80;53.60;;;;;;5127747;27;20279;-79
2023/02/06 12:14:57;;;;;;;10.85;2.72;;;25.80;52.00;;;;;;5124979;27;20183;-80
2023/02/06 12:17:25;;;;;;;13.95;3.15;;;25.40;50.60;;;;;;5122668;27;20648;-80
2023/02/06 12:19:59;;;;;;;16.02;2.90;;;24.60;50.90;;;;;;5112305;27;20177;-80
2023/02/06 12:22:25;;;;;;;13.40;3.08;;;23.90;51.70;;;;;;5128656;27;20184;-81
2023/02/06 12:24:55;;;;;;;15.50;2.80;;;23.60;52.70;;;;;;5129013;27;20276;-79
2023/02/06 12:27:33;;;;;;;13.00;2.60;;;24.00;52.40;;;;;;5130563;27;20558;-79
2023/02/06 12:30:31;;;;;;;14.80;2.95;;;23.90;50.80;;;;;;5131944;27;20200;-77
2023/02/06 12:33:12;;;;;;;10.20;2.53;;;23.70;49.90;;;;;;5109572;27;20172;-80
2023/02/06 12:35:48;;;;;;;13.95;2.85;;;23.60;50.40;;;;;;5125395;27;20176;-78
2023/02/06 12:38:51;;;;;;;15.70;2.30;;;23.30;50.60;;;;;;5130468;27;20221;-83
2023/02/06 12:41:37;;;;;;;13.30;2.90;;;22.80;49.30;;;;;;5115381;27;20175;-78
2023/02/06 12:44:29;;;;;;;15.10;2.92;;;21.40;51.70;;;;;;5127581;27;20620;-77
2023/02/06 12:47:17;;;;;;;12.23;2.97;;;19.70;54.00;;;;;;5113948;28;20543;-77
2023/02/06 12:50:30;;;;;;;14.30;2.97;;;18.50;56.80;;;;;;5114829;27;20197;-77
2023/02/06 12:53:10;;;;;;;14.98;3.13;;;17.30;60.00;;;;;;5116578;27;20199;-82
2023/02/06 12:56:10;;;;;;;13.35;2.75;;;16.40;65.20;;;;;;5130358;27;20173;-78
2023/02/06 12:58:59;;;;;;;15.00;2.92;;;17.00;68.40;;;;;;5113911;27;20769;-79
2023/02/06 13:01:55;;;;;;;13.93;2.78;;;18.70;65.30;;;;;;5131107;27;20207;-79
2023/02/06 13:04:28;;;;;;;16.00;3.33;;;20.00;60.40;;;;;;5125650;27;20192;-79